sim
Sign-in with your pilot id or email,
or register
Callsign
Passwort

Schedule Details

Flight Number: EWG1835 (1)
Departure: Amsterdam Schiphol Airport (EHAM) at 20:45
Arrival: Munich Airport (EDDM) at 22:10
Route: Eurowings Passenger Schedule. Enter filed route here before submitting Pirep.

Weather Information
Getting current METAR information for EHAM 240525Z 23011KT 200V260 9999 FEW030 12/08 Q1000 NOSIG
Getting current METAR information for EDDM 240520Z VRB01KT CAVOK 09/09 Q1009 NOSIG

Schedule Frequency

Route Map